sensor_id;sensor_type;location;lat;lon;timestamp;temperature;humidity
3614;DHT22;1821;50.936;6.854;2022-11-04T00:00:27;11.50;99.90
3614;DHT22;1821;50.936;6.854;2022-11-04T00:01:10;11.60;99.90
3614;DHT22;1821;50.936;6.854;2022-11-04T00:01:52;11.70;99.90
3614;DHT22;1821;50.936;6.854;2022-11-04T00:02:34;11.60;99.90
3614;DHT22;1821;50.936;6.854;2022-11-04T00:03:16;12.40;99.90
3614;DHT22;1821;50.936;6.854;2022-11-04T00:03:58;11.60;99.90
3614;DHT22;1821;50.936;6.854;2022-11-04T00:04:39;11.60;99.90
3614;DHT22;1821;50.936;6.854;2022-11-04T00:05:21;11.60;99.90
3614;DHT22;1821;50.936;6.854;2022-11-04T00:06:03;11.90;99.90
3614;DHT22;1821;50.936;6.854;2022-11-04T00:06:45;11.40;99.90
3614;DHT22;1821;50.936;6.854;2022-11-04T00:07:27;11.40;99.90
3614;DHT22;1821;50.936;6.854;2022-11-04T00:08:27;11.50;99.90
3614;DHT22;1821;50.936;6.854;2022-11-04T00:09:12;11.50;99.90
3614;DHT22;1821;50.936;6.854;2022-11-04T00:09:55;11.40;99.90
3614;DHT22;1821;50.936;6.854;2022-11-04T00:10:37;11.20;99.90
3614;DHT22;1821;50.936;6.854;2022-11-04T00:11:38;11.30;99.90
3614;DHT22;1821;50.936;6.854;2022-11-04T00:12:38;12.00;99.90
3614;DHT22;1821;50.936;6.854;2022-11-04T00:13:20;11.50;99.90
3614;DHT22;1821;50.936;6.854;2022-11-04T00:14:03;11.50;99.90
3614;DHT22;1821;50.936;6.854;2022-11-04T00:14:45;11.50;99.90
3614;DHT22;1821;50.936;6.854;2022-11-04T00:15:26;12.00;99.90
3614;DHT22;1821;50.936;6.854;2022-11-04T00:16:27;11.60;99.90
3614;DHT22;1821;50.936;6.854;2022-11-04T00:17:27;12.00;99.90
3614;DHT22;1821;50.936;6.854;2022-11-04T00:18:09;11.40;99.90
3614;DHT22;1821;50.936;6.854;2022-11-04T00:18:51;12.40;99.90
3614;DHT22;1821;50.936;6.854;2022-11-04T00:19:33;11.50;99.90
3614;DHT22;1821;50.936;6.854;2022-11-04T00:20:34;11.50;99.90
3614;DHT22;1821;50.936;6.854;2022-11-04T00:21:34;11.40;99.90
3614;DHT22;1821;50.936;6.854;2022-11-04T00:22:36;11.60;99.90
3614;DHT22;1821;50.936;6.854;2022-11-04T00:23:36;11.80;99.90
3614;DHT22;1821;50.936;6.854;2022-11-04T00:24:36;11.50;99.90
3614;DHT22;1821;50.936;6.854;2022-11-04T00:25:37;11.50;99.90
3614;DHT22;1821;50.936;6.854;2022-11-04T00:26:37;12.00;99.90
3614;DHT22;1821;50.936;6.854;2022-11-04T00:27:37;11.30;99.90
3614;DHT22;1821;50.936;6.854;2022-11-04T00:28:38;11.50;99.90
3614;DHT22;1821;50.936;6.854;2022-11-04T00:29:23;12.00;99.90
3614;DHT22;1821;50.936;6.854;2022-11-04T00:30:07;11.50;99.90
3614;DHT22;1821;50.936;6.854;2022-11-04T00:30:54;11.40;99.90
3614;DHT22;1821;50.936;6.854;2022-11-04T00:31:36;11.20;99.90
3614;DHT22;1821;50.936;6.854;2022-11-04T00:32:36;11.40;99.90
3614;DHT22;1821;50.936;6.854;2022-11-04T00:33:36;11.50;99.90
3614;DHT22;1821;50.936;6.854;2022-11-04T00:34:18;11.30;99.90
3614;DHT22;1821;50.936;6.854;2022-11-04T00:34:59;12.00;99.90
3614;DHT22;1821;50.936;6.854;2022-11-04T00:35:48;11.40;99.90
3614;DHT22;1821;50.936;6.854;2022-11-04T00:36:30;11.80;99.90
3614;DHT22;1821;50.936;6.854;2022-11-04T00:37:11;11.40;99.90
3614;DHT22;1821;50.936;6.854;2022-11-04T00:37:53;12.10;99.90
3614;DHT22;1821;50.936;6.854;2022-11-04T00:38:35;11.30;99.90
3614;DHT22;1821;50.936;6.854;2022-11-04T00:39:16;11.70;99.90
3614;DHT22;1821;50.936;6.854;2022-11-04T00:39:58;11.50;99.90
3614;DHT22;1821;50.936;6.854;2022-11-04T00:40:40;11.60;99.90
3614;DHT22;1821;50.936;6.854;2022-11-04T00:41:22;11.50;99.90
3614;DHT22;1821;50.936;6.854;2022-11-04T00:42:07;11.80;99.90
3614;DHT22;1821;50.936;6.854;2022-11-04T00:42:49;11.60;99.90
3614;DHT22;1821;50.936;6.854;2022-11-04T00:43:31;12.00;99.90
3614;DHT22;1821;50.936;6.854;2022-11-04T00:44:12;11.60;99.90
3614;DHT22;1821;50.936;6.854;2022-11-04T00:44:54;11.20;99.90
3614;DHT22;1821;50.936;6.854;2022-11-04T00:45:36;11.30;99.90
3614;DHT22;1821;50.936;6.854;2022-11-04T00:46:17;11.50;99.90
3614;DHT22;1821;50.936;6.854;2022-11-04T00:46:59;11.40;99.90
3614;DHT22;1821;50.936;6.854;2022-11-04T00:47:41;11.30;99.90
3614;DHT22;1821;50.936;6.854;2022-11-04T00:48:22;12.30;99.90
3614;DHT22;1821;50.936;6.854;2022-11-04T00:49:04;11.80;99.90
3614;DHT22;1821;50.936;6.854;2022-11-04T00:49:46;11.60;99.90
3614;DHT22;1821;50.936;6.854;2022-11-04T00:50:27;11.60;99.90
3614;DHT22;1821;50.936;6.854;2022-11-04T00:51:09;11.50;99.90
3614;DHT22;1821;50.936;6.854;2022-11-04T00:51:51;11.60;99.90
3614;DHT22;1821;50.936;6.854;2022-11-04T00:52:32;11.80;99.90
3614;DHT22;1821;50.936;6.854;2022-11-04T00:53:14;11.70;99.90
3614;DHT22;1821;50.936;6.854;2022-11-04T00:53:56;11.70;99.90
3614;DHT22;1821;50.936;6.854;2022-11-04T00:54:38;11.80;99.90
3614;DHT22;1821;50.936;6.854;2022-11-04T00:55:20;12.80;99.90
3614;DHT22;1821;50.936;6.854;2022-11-04T00:56:02;11.60;99.90
3614;DHT22;1821;50.936;6.854;2022-11-04T00:56:43;11.60;99.90
3614;DHT22;1821;50.936;6.854;2022-11-04T00:57:25;12.30;99.90
3614;DHT22;1821;50.936;6.854;2022-11-04T00:58:07;11.30;99.90
3614;DHT22;1821;50.936;6.854;2022-11-04T00:58:49;11.80;99.90
3614;DHT22;1821;50.936;6.854;2022-11-04T00:59:30;11.60;99.90
3614;DHT22;1821;50.936;6.854;2022-11-04T01:00:13;11.50;99.90
3614;DHT22;1821;50.936;6.854;2022-11-04T01:00:54;11.40;99.90
3614;DHT22;1821;50.936;6.854;2022-11-04T01:01:36;11.50;99.90
3614;DHT22;1821;50.936;6.854;2022-11-04T01:02:18;12.00;99.90
3614;DHT22;1821;50.936;6.854;2022-11-04T01:03:00;11.90;99.90
3614;DHT22;1821;50.936;6.854;2022-11-04T01:03:47;12.80;99.90
3614;DHT22;1821;50.936;6.854;2022-11-04T01:04:29;11.20;99.90
3614;DHT22;1821;50.936;6.854;2022-11-04T01:05:11;11.90;99.90
3614;DHT22;1821;50.936;6.854;2022-11-04T01:05:53;11.50;99.90
3614;DHT22;1821;50.936;6.854;2022-11-04T01:06:38;11.50;99.90
3614;DHT22;1821;50.936;6.854;2022-11-04T01:07:19;11.60;99.90
3614;DHT22;1821;50.936;6.854;2022-11-04T01:08:01;11.60;99.90
3614;DHT22;1821;50.936;6.854;2022-11-04T01:08:43;11.60;99.90
3614;DHT22;1821;50.936;6.854;2022-11-04T01:09:25;11.20;99.90
3614;DHT22;1821;50.936;6.854;2022-11-04T01:10:08;11.60;99.90
3614;DHT22;1821;50.936;6.854;2022-11-04T01:10:49;11.40;99.90
3614;DHT22;1821;50.936;6.854;2022-11-04T01:11:31;11.70;99.90
3614;DHT22;1821;50.936;6.854;2022-11-04T01:12:13;12.10;99.90
3614;DHT22;1821;50.936;6.854;2022-11-04T01:12:55;11.90;99.90
3614;DHT22;1821;50.936;6.854;2022-11-04T01:13:37;11.40;99.90
3614;DHT22;1821;50.936;6.854;2022-11-04T01:14:19;11.70;99.90
3614;DHT22;1821;50.936;6.854;2022-11-04T01:15:01;11.50;99.90
3614;DHT22;1821;50.936;6.854;2022-11-04T01:15:43;11.60;99.90
3614;DHT22;1821;50.936;6.854;2022-11-04T01:16:25;11.60;99.90
3614;DHT22;1821;50.936;6.854;2022-11-04T01:17:08;11.40;99.90
3614;DHT22;1821;50.936;6.854;2022-11-04T01:17:50;11.60;99.90
3614;DHT22;1821;50.936;6.854;2022-11-04T01:18:32;12.00;99.90
3614;DHT22;1821;50.936;6.854;2022-11-04T01:19:14;11.70;99.90
3614;DHT22;1821;50.936;6.854;2022-11-04T01:19:55;12.60;99.90
3614;DHT22;1821;50.936;6.854;2022-11-04T01:20:37;11.80;99.90
3614;DHT22;1821;50.936;6.854;2022-11-04T01:21:19;12.50;99.90
3614;DHT22;1821;50.936;6.854;2022-11-04T01:22:01;11.80;99.90
3614;DHT22;1821;50.936;6.854;2022-11-04T01:22:43;11.30;99.90
3614;DHT22;1821;50.936;6.854;2022-11-04T01:23:24;11.50;99.90
3614;DHT22;1821;50.936;6.854;2022-11-04T01:24:06;11.40;99.90
3614;DHT22;1821;50.936;6.854;2022-11-04T01:24:48;11.50;99.90
3614;DHT22;1821;50.936;6.854;2022-11-04T01:25:29;11.50;99.90
3614;DHT22;1821;50.936;6.854;2022-11-04T01:26:16;11.20;99.90
3614;DHT22;1821;50.936;6.854;2022-11-04T01:26:58;11.50;99.90
3614;DHT22;1821;50.936;6.854;2022-11-04T01:27:40;11.40;99.90
3614;DHT22;1821;50.936;6.854;2022-11-04T01:28:22;11.70;99.90
3614;DHT22;1821;50.936;6.854;2022-11-04T01:29:03;11.50;99.90
3614;DHT22;1821;50.936;6.854;2022-11-04T01:29:45;12.70;99.90
3614;DHT22;1821;50.936;6.854;2022-11-04T01:30:27;11.40;99.90
3614;DHT22;1821;50.936;6.854;2022-11-04T01:31:13;11.40;99.90
3614;DHT22;1821;50.936;6.854;2022-11-04T01:31:55;11.40;99.90
3614;DHT22;1821;50.936;6.854;2022-11-04T01:32:37;12.20;99.90
3614;DHT22;1821;50.936;6.854;2022-11-04T01:33:19;11.30;99.90
3614;DHT22;1821;50.936;6.854;2022-11-04T01:34:00;12.10;99.90
3614;DHT22;1821;50.936;6.854;2022-11-04T01:34:42;11.40;99.90
3614;DHT22;1821;50.936;6.854;2022-11-04T01:35:24;11.40;99.90
3614;DHT22;1821;50.936;6.854;2022-11-04T01:36:06;11.20;99.90
3614;DHT22;1821;50.936;6.854;2022-11-04T01:36:48;11.80;99.90
3614;DHT22;1821;50.936;6.854;2022-11-04T01:37:30;11.40;99.90
3614;DHT22;1821;50.936;6.854;2022-11-04T01:38:12;11.10;99.90
3614;DHT22;1821;50.936;6.854;2022-11-04T01:38:55;12.00;99.90
3614;DHT22;1821;50.936;6.854;2022-11-04T01:39:37;11.80;99.90
3614;DHT22;1821;50.936;6.854;2022-11-04T01:40:19;11.50;99.90
3614;DHT22;1821;50.936;6.854;2022-11-04T01:41:01;11.70;99.90
3614;DHT22;1821;50.936;6.854;2022-11-04T01:41:43;11.70;99.90
3614;DHT22;1821;50.936;6.854;2022-11-04T01:42:25;11.40;99.90
3614;DHT22;1821;50.936;6.854;2022-11-04T01:43:42;11.20;99.90
3614;DHT22;1821;50.936;6.854;2022-11-04T01:45:22;11.20;99.90
3614;DHT22;1821;50.936;6.854;2022-11-04T01:46:03;12.00;99.90
3614;DHT22;1821;50.936;6.854;2022-11-04T01:46:48;11.20;99.90
3614;DHT22;1821;50.936;6.854;2022-11-04T01:47:41;11.30;99.90
3614;DHT22;1821;50.936;6.854;2022-11-04T01:48:31;10.80;99.90
3614;DHT22;1821;50.936;6.854;2022-11-04T01:49:35;11.10;99.90
3614;DHT22;1821;50.936;6.854;2022-11-04T01:50:27;11.00;99.90
3614;DHT22;1821;50.936;6.854;2022-11-04T01:51:10;12.00;99.90
3614;DHT22;1821;50.936;6.854;2022-11-04T01:52:08;11.20;99.90
3614;DHT22;1821;50.936;6.854;2022-11-04T01:53:01;11.10;99.90
3614;DHT22;1821;50.936;6.854;2022-11-04T01:53:47;10.90;99.90
3614;DHT22;1821;50.936;6.854;2022-11-04T01:54:31;11.80;99.90
3614;DHT22;1821;50.936;6.854;2022-11-04T01:55:15;11.40;99.90
3614;DHT22;1821;50.936;6.854;2022-11-04T01:56:01;11.00;99.90
3614;DHT22;1821;50.936;6.854;2022-11-04T01:56:46;11.20;99.90
3614;DHT22;1821;50.936;6.854;2022-11-04T01:57:33;10.80;99.90
3614;DHT22;1821;50.936;6.854;2022-11-04T01:58:17;11.60;99.90
3614;DHT22;1821;50.936;6.854;2022-11-04T01:59:05;11.00;99.90
3614;DHT22;1821;50.936;6.854;2022-11-04T01:59:48;10.60;99.90
3614;DHT22;1821;50.936;6.854;2022-11-04T02:00:31;11.20;99.90
3614;DHT22;1821;50.936;6.854;2022-11-04T02:01:12;11.80;99.90
3614;DHT22;1821;50.936;6.854;2022-11-04T02:01:55;11.40;99.90
3614;DHT22;1821;50.936;6.854;2022-11-04T02:02:50;10.60;99.90
3614;DHT22;1821;50.936;6.854;2022-11-04T02:03:38;10.90;99.90
3614;DHT22;1821;50.936;6.854;2022-11-04T02:04:21;11.50;99.90
3614;DHT22;1821;50.936;6.854;2022-11-04T02:05:06;10.90;99.90
3614;DHT22;1821;50.936;6.854;2022-11-04T02:05:47;10.90;99.90
3614;DHT22;1821;50.936;6.854;2022-11-04T02:06:29;11.40;99.90
3614;DHT22;1821;50.936;6.854;2022-11-04T02:07:11;11.50;99.90
3614;DHT22;1821;50.936;6.854;2022-11-04T02:07:56;10.90;99.90
3614;DHT22;1821;50.936;6.854;2022-11-04T02:08:38;11.30;99.90
3614;DHT22;1821;50.936;6.854;2022-11-04T02:09:23;10.70;99.90
3614;DHT22;1821;50.936;6.854;2022-11-04T02:10:06;11.60;99.90
3614;DHT22;1821;50.936;6.854;2022-11-04T02:10:53;10.90;99.90
3614;DHT22;1821;50.936;6.854;2022-11-04T02:11:38;11.60;99.90
3614;DHT22;1821;50.936;6.854;2022-11-04T02:12:38;10.80;99.90
3614;DHT22;1821;50.936;6.854;2022-11-04T02:13:34;10.90;99.90
3614;DHT22;1821;50.936;6.854;2022-11-04T02:14:16;12.00;99.90
3614;DHT22;1821;50.936;6.854;2022-11-04T02:14:58;11.50;99.90
3614;DHT22;1821;50.936;6.854;2022-11-04T02:16:43;10.80;99.90
3614;DHT22;1821;50.936;6.854;2022-11-04T02:18:46;10.80;99.90
3614;DHT22;1821;50.936;6.854;2022-11-04T02:24:37;10.60;99.90
3614;DHT22;1821;50.936;6.854;2022-11-04T02:29:25;10.70;99.90
3614;DHT22;1821;50.936;6.854;2022-11-04T02:30:18;10.50;99.90
3614;DHT22;1821;50.936;6.854;2022-11-04T02:34:29;10.70;99.90
3614;DHT22;1821;50.936;6.854;2022-11-04T02:35:17;11.00;99.90
3614;DHT22;1821;50.936;6.854;2022-11-04T02:39:09;10.50;99.90
3614;DHT22;1821;50.936;6.854;2022-11-04T02:41:39;10.50;99.90
3614;DHT22;1821;50.936;6.854;2022-11-04T02:42:47;10.50;99.90
3614;DHT22;1821;50.936;6.854;2022-11-04T02:46:54;10.50;99.90
3614;DHT22;1821;50.936;6.854;2022-11-04T02:47:44;10.90;99.90
3614;DHT22;1821;50.936;6.854;2022-11-04T02:48:51;10.10;99.90
3614;DHT22;1821;50.936;6.854;2022-11-04T02:50:32;10.50;99.90
3614;DHT22;1821;50.936;6.854;2022-11-04T02:51:19;10.70;99.90
3614;DHT22;1821;50.936;6.854;2022-11-04T02:52:11;10.70;99.90
3614;DHT22;1821;50.936;6.854;2022-11-04T02:53:11;10.20;99.90
3614;DHT22;1821;50.936;6.854;2022-11-04T02:54:09;10.40;99.90
3614;DHT22;1821;50.936;6.854;2022-11-04T02:55:14;10.40;99.90
3614;DHT22;1821;50.936;6.854;2022-11-04T02:55:59;10.20;99.90
3614;DHT22;1821;50.936;6.854;2022-11-04T02:56:49;10.70;99.90
3614;DHT22;1821;50.936;6.854;2022-11-04T02:57:36;10.40;99.90
3614;DHT22;1821;50.936;6.854;2022-11-04T02:58:24;10.30;99.90
3614;DHT22;1821;50.936;6.854;2022-11-04T02:59:27;11.20;99.90
3614;DHT22;1821;50.936;6.854;2022-11-04T03:00:12;10.30;99.90
3614;DHT22;1821;50.936;6.854;2022-11-04T03:00:56;10.50;99.90
3614;DHT22;1821;50.936;6.854;2022-11-04T03:01:40;10.30;99.90
3614;DHT22;1821;50.936;6.854;2022-11-04T03:03:32;10.50;99.90
3614;DHT22;1821;50.936;6.854;2022-11-04T03:04:21;10.90;99.90
3614;DHT22;1821;50.936;6.854;2022-11-04T03:05:07;10.40;99.90
3614;DHT22;1821;50.936;6.854;2022-11-04T03:05:52;10.40;99.90
3614;DHT22;1821;50.936;6.854;2022-11-04T03:06:36;10.90;99.90
3614;DHT22;1821;50.936;6.854;2022-11-04T03:07:23;10.60;99.90
3614;DHT22;1821;50.936;6.854;2022-11-04T03:08:15;11.40;99.90
3614;DHT22;1821;50.936;6.854;2022-11-04T03:09:00;10.50;99.90
3614;DHT22;1821;50.936;6.854;2022-11-04T03:09:47;11.70;99.90
3614;DHT22;1821;50.936;6.854;2022-11-04T03:10:37;11.10;99.90
3614;DHT22;1821;50.936;6.854;2022-11-04T03:11:22;11.30;99.90
3614;DHT22;1821;50.936;6.854;2022-11-04T03:12:12;10.50;99.90
3614;DHT22;1821;50.936;6.854;2022-11-04T03:13:00;11.30;99.90
3614;DHT22;1821;50.936;6.854;2022-11-04T03:13:47;11.40;99.90
3614;DHT22;1821;50.936;6.854;2022-11-04T03:14:47;11.20;99.90
3614;DHT22;1821;50.936;6.854;2022-11-04T03:15:34;10.60;99.90
3614;DHT22;1821;50.936;6.854;2022-11-04T03:16:25;10.80;99.90
3614;DHT22;1821;50.936;6.854;2022-11-04T03:17:19;10.50;99.90
3614;DHT22;1821;50.936;6.854;2022-11-04T03:18:13;11.40;99.90
3614;DHT22;1821;50.936;6.854;2022-11-04T03:19:56;10.50;99.90
3614;DHT22;1821;50.936;6.854;2022-11-04T03:20:40;10.40;99.90
3614;DHT22;1821;50.936;6.854;2022-11-04T03:21:23;10.20;99.90
3614;DHT22;1821;50.936;6.854;2022-11-04T03:22:35;10.40;99.90
3614;DHT22;1821;50.936;6.854;2022-11-04T03:23:18;10.80;99.90
3614;DHT22;1821;50.936;6.854;2022-11-04T03:24:00;10.90;99.90
3614;DHT22;1821;50.936;6.854;2022-11-04T03:24:44;10.80;99.90
3614;DHT22;1821;50.936;6.854;2022-11-04T03:25:39;10.90;99.90
3614;DHT22;1821;50.936;6.854;2022-11-04T03:28:25;10.40;99.90
3614;DHT22;1821;50.936;6.854;2022-11-04T03:30:19;10.30;99.90
3614;DHT22;1821;50.936;6.854;2022-11-04T03:31:03;10.40;99.90
3614;DHT22;1821;50.936;6.854;2022-11-04T03:33:44;11.10;99.90
3614;DHT22;1821;50.936;6.854;2022-11-04T03:34:28;11.10;99.90
3614;DHT22;1821;50.936;6.854;2022-11-04T03:35:11;10.50;99.90
3614;DHT22;1821;50.936;6.854;2022-11-04T03:35:55;10.70;99.90
3614;DHT22;1821;50.936;6.854;2022-11-04T03:36:36;10.10;99.90
3614;DHT22;1821;50.936;6.854;2022-11-04T03:37:18;10.50;99.90
3614;DHT22;1821;50.936;6.854;2022-11-04T03:38:01;11.10;99.90
3614;DHT22;1821;50.936;6.854;2022-11-04T03:38:43;10.10;99.90
3614;DHT22;1821;50.936;6.854;2022-11-04T03:39:25;10.70;99.90
3614;DHT22;1821;50.936;6.854;2022-11-04T03:40:07;10.30;99.90
3614;DHT22;1821;50.936;6.854;2022-11-04T03:40:50;10.30;99.90
3614;DHT22;1821;50.936;6.854;2022-11-04T03:41:41;10.30;99.90
3614;DHT22;1821;50.936;6.854;2022-11-04T03:42:26;10.20;99.90
3614;DHT22;1821;50.936;6.854;2022-11-04T03:43:21;10.80;99.90
3614;DHT22;1821;50.936;6.854;2022-11-04T03:44:04;10.40;99.90
3614;DHT22;1821;50.936;6.854;2022-11-04T03:44:51;10.60;99.90
3614;DHT22;1821;50.936;6.854;2022-11-04T03:45:34;10.20;99.90
3614;DHT22;1821;50.936;6.854;2022-11-04T03:46:16;10.40;99.90
3614;DHT22;1821;50.936;6.854;2022-11-04T03:46:57;11.00;99.90
3614;DHT22;1821;50.936;6.854;2022-11-04T03:47:39;11.00;99.90
3614;DHT22;1821;50.936;6.854;2022-11-04T03:48:22;10.30;99.90
3614;DHT22;1821;50.936;6.854;2022-11-04T03:49:04;10.60;99.90
3614;DHT22;1821;50.936;6.854;2022-11-04T03:49:47;10.50;99.90
3614;DHT22;1821;50.936;6.854;2022-11-04T03:50:33;10.50;99.90
3614;DHT22;1821;50.936;6.854;2022-11-04T03:51:19;10.50;99.90
3614;DHT22;1821;50.936;6.854;2022-11-04T03:52:01;10.20;99.90
3614;DHT22;1821;50.936;6.854;2022-11-04T03:52:42;10.10;99.90
3614;DHT22;1821;50.936;6.854;2022-11-04T03:53:25;10.20;99.90
3614;DHT22;1821;50.936;6.854;2022-11-04T03:54:09;10.30;99.90
3614;DHT22;1821;50.936;6.854;2022-11-04T03:54:50;10.40;99.90
3614;DHT22;1821;50.936;6.854;2022-11-04T03:56:49;10.20;99.90
3614;DHT22;1821;50.936;6.854;2022-11-04T03:57:35;10.10;99.90
3614;DHT22;1821;50.936;6.854;2022-11-04T03:58:43;10.30;99.90
3614;DHT22;1821;50.936;6.854;2022-11-04T04:00:21;10.40;99.90
3614;DHT22;1821;50.936;6.854;2022-11-04T04:02:16;10.10;99.90
3614;DHT22;1821;50.936;6.854;2022-11-04T04:03:14;10.00;99.90
3614;DHT22;1821;50.936;6.854;2022-11-04T04:04:16;10.00;99.90
3614;DHT22;1821;50.936;6.854;2022-11-04T04:05:16;10.10;99.90
3614;DHT22;1821;50.936;6.854;2022-11-04T04:06:09;10.00;99.90
3614;DHT22;1821;50.936;6.854;2022-11-04T04:06:55;10.50;99.90
3614;DHT22;1821;50.936;6.854;2022-11-04T04:07:43;9.70;99.90
3614;DHT22;1821;50.936;6.854;2022-11-04T04:08:37;10.80;99.90
3614;DHT22;1821;50.936;6.854;2022-11-04T04:10:28;9.80;99.90
3614;DHT22;1821;50.936;6.854;2022-11-04T04:11:22;10.00;99.90
3614;DHT22;1821;50.936;6.854;2022-11-04T04:12:17;10.60;99.90
3614;DHT22;1821;50.936;6.854;2022-11-04T04:13:04;11.00;99.90
3614;DHT22;1821;50.936;6.854;2022-11-04T04:14:04;10.60;99.90
3614;DHT22;1821;50.936;6.854;2022-11-04T04:14:56;10.40;99.90
3614;DHT22;1821;50.936;6.854;2022-11-04T04:15:54;9.80;99.90
3614;DHT22;1821;50.936;6.854;2022-11-04T04:16:41;9.90;99.90
3614;DHT22;1821;50.936;6.854;2022-11-04T04:17:31;9.70;99.90
3614;DHT22;1821;50.936;6.854;2022-11-04T04:18:15;10.00;99.90
3614;DHT22;1821;50.936;6.854;2022-11-04T04:19:11;9.70;99.90
3614;DHT22;1821;50.936;6.854;2022-11-04T04:20:03;9.90;99.90
3614;DHT22;1821;50.936;6.854;2022-11-04T04:20:48;9.80;99.90
3614;DHT22;1821;50.936;6.854;2022-11-04T04:21:36;9.40;99.90
3614;DHT22;1821;50.936;6.854;2022-11-04T04:22:21;10.00;99.90
3614;DHT22;1821;50.936;6.854;2022-11-04T04:23:07;9.80;99.90
3614;DHT22;1821;50.936;6.854;2022-11-04T04:24:11;9.80;99.90
3614;DHT22;1821;50.936;6.854;2022-11-04T04:25:14;10.00;99.90
3614;DHT22;1821;50.936;6.854;2022-11-04T04:26:15;9.60;99.90
3614;DHT22;1821;50.936;6.854;2022-11-04T04:27:19;10.10;99.90
3614;DHT22;1821;50.936;6.854;2022-11-04T04:28:15;9.30;99.90
3614;DHT22;1821;50.936;6.854;2022-11-04T04:28:58;10.00;99.90
3614;DHT22;1821;50.936;6.854;2022-11-04T04:29:44;10.10;99.90
3614;DHT22;1821;50.936;6.854;2022-11-04T04:30:26;9.30;99.90
3614;DHT22;1821;50.936;6.854;2022-11-04T04:31:09;10.40;99.90
3614;DHT22;1821;50.936;6.854;2022-11-04T04:31:54;9.90;99.90
3614;DHT22;1821;50.936;6.854;2022-11-04T04:32:53;9.90;99.90
3614;DHT22;1821;50.936;6.854;2022-11-04T04:33:37;9.70;99.90
3614;DHT22;1821;50.936;6.854;2022-11-04T04:34:22;9.60;99.90
3614;DHT22;1821;50.936;6.854;2022-11-04T04:35:06;9.20;99.90
3614;DHT22;1821;50.936;6.854;2022-11-04T04:36:08;9.70;99.90
3614;DHT22;1821;50.936;6.854;2022-11-04T04:37:40;10.60;99.90
3614;DHT22;1821;50.936;6.854;2022-11-04T04:38:27;10.60;99.90
3614;DHT22;1821;50.936;6.854;2022-11-04T04:39:48;9.70;99.90
3614;DHT22;1821;50.936;6.854;2022-11-04T04:40:54;10.10;99.90
3614;DHT22;1821;50.936;6.854;2022-11-04T04:41:56;10.50;99.90
3614;DHT22;1821;50.936;6.854;2022-11-04T04:42:57;10.30;99.90
3614;DHT22;1821;50.936;6.854;2022-11-04T04:44:03;9.80;99.90
3614;DHT22;1821;50.936;6.854;2022-11-04T04:45:22;10.10;99.90
3614;DHT22;1821;50.936;6.854;2022-11-04T04:46:04;9.30;99.90
3614;DHT22;1821;50.936;6.854;2022-11-04T04:46:48;9.70;99.90
3614;DHT22;1821;50.936;6.854;2022-11-04T04:48:15;9.80;99.90
3614;DHT22;1821;50.936;6.854;2022-11-04T04:49:06;10.10;99.90
3614;DHT22;1821;50.936;6.854;2022-11-04T04:49:53;9.90;99.90
3614;DHT22;1821;50.936;6.854;2022-11-04T04:50:40;9.80;99.90
3614;DHT22;1821;50.936;6.854;2022-11-04T04:51:22;10.40;99.90
3614;DHT22;1821;50.936;6.854;2022-11-04T04:52:06;9.40;99.90
3614;DHT22;1821;50.936;6.854;2022-11-04T04:52:50;9.60;99.90
3614;DHT22;1821;50.936;6.854;2022-11-04T04:53:32;9.20;99.90
3614;DHT22;1821;50.936;6.854;2022-11-04T04:54:14;10.80;99.90
3614;DHT22;1821;50.936;6.854;2022-11-04T04:54:55;10.60;99.90
3614;DHT22;1821;50.936;6.854;2022-11-04T04:55:37;9.30;99.90
3614;DHT22;1821;50.936;6.854;2022-11-04T04:56:22;9.20;99.90
3614;DHT22;1821;50.936;6.854;2022-11-04T04:57:03;10.90;99.90
3614;DHT22;1821;50.936;6.854;2022-11-04T04:57:45;10.10;99.90
3614;DHT22;1821;50.936;6.854;2022-11-04T04:58:27;9.90;99.90
3614;DHT22;1821;50.936;6.854;2022-11-04T04:59:09;9.40;99.90
3614;DHT22;1821;50.936;6.854;2022-11-04T04:59:50;9.70;99.90
3614;DHT22;1821;50.936;6.854;2022-11-04T05:00:32;9.90;99.90
3614;DHT22;1821;50.936;6.854;2022-11-04T05:01:14;9.90;99.90
3614;DHT22;1821;50.936;6.854;2022-11-04T05:01:55;9.60;99.90
3614;DHT22;1821;50.936;6.854;2022-11-04T05:02:37;9.80;99.90
3614;DHT22;1821;50.936;6.854;2022-11-04T05:03:19;10.30;99.90
3614;DHT22;1821;50.936;6.854;2022-11-04T05:04:01;9.40;99.90
3614;DHT22;1821;50.936;6.854;2022-11-04T05:04:42;9.20;99.90
3614;DHT22;1821;50.936;6.854;2022-11-04T05:05:24;9.70;99.90
3614;DHT22;1821;50.936;6.854;2022-11-04T05:06:06;9.80;99.90
3614;DHT22;1821;50.936;6.854;2022-11-04T05:06:48;9.40;99.90
3614;DHT22;1821;50.936;6.854;2022-11-04T05:07:29;9.60;99.90
3614;DHT22;1821;50.936;6.854;2022-11-04T05:08:11;9.80;99.90
3614;DHT22;1821;50.936;6.854;2022-11-04T05:08:53;10.20;99.90
3614;DHT22;1821;50.936;6.854;2022-11-04T05:09:35;10.10;99.90
3614;DHT22;1821;50.936;6.854;2022-11-04T05:10:17;9.50;99.90
3614;DHT22;1821;50.936;6.854;2022-11-04T05:10:59;9.60;99.90
3614;DHT22;1821;50.936;6.854;2022-11-04T05:11:41;9.50;99.90
3614;DHT22;1821;50.936;6.854;2022-11-04T05:12:22;9.70;99.90
3614;DHT22;1821;50.936;6.854;2022-11-04T05:13:04;10.80;99.90
3614;DHT22;1821;50.936;6.854;2022-11-04T05:14:04;9.90;99.90
3614;DHT22;1821;50.936;6.854;2022-11-04T05:14:46;9.20;99.90
3614;DHT22;1821;50.936;6.854;2022-11-04T05:15:29;9.90;99.90
3614;DHT22;1821;50.936;6.854;2022-11-04T05:16:11;9.10;99.90
3614;DHT22;1821;50.936;6.854;2022-11-04T05:16:53;9.30;99.90
3614;DHT22;1821;50.936;6.854;2022-11-04T05:17:35;10.00;99.90
3614;DHT22;1821;50.936;6.854;2022-11-04T05:18:17;9.30;99.90
3614;DHT22;1821;50.936;6.854;2022-11-04T05:18:58;9.20;99.90
3614;DHT22;1821;50.936;6.854;2022-11-04T05:19:40;10.00;99.90
3614;DHT22;1821;50.936;6.854;2022-11-04T05:20:22;9.60;99.90
3614;DHT22;1821;50.936;6.854;2022-11-04T05:21:05;9.20;99.90
3614;DHT22;1821;50.936;6.854;2022-11-04T05:21:47;9.40;99.90
3614;DHT22;1821;50.936;6.854;2022-11-04T05:22:29;10.30;99.90
3614;DHT22;1821;50.936;6.854;2022-11-04T05:23:11;9.40;99.90
3614;DHT22;1821;50.936;6.854;2022-11-04T05:23:54;9.50;99.90
3614;DHT22;1821;50.936;6.854;2022-11-04T05:24:36;9.30;99.90
3614;DHT22;1821;50.936;6.854;2022-11-04T05:25:17;9.30;99.90
3614;DHT22;1821;50.936;6.854;2022-11-04T05:25:59;9.20;99.90
3614;DHT22;1821;50.936;6.854;2022-11-04T05:26:41;9.30;99.90
3614;DHT22;1821;50.936;6.854;2022-11-04T05:27:23;9.30;99.90
3614;DHT22;1821;50.936;6.854;2022-11-04T05:28:05;9.30;99.90
3614;DHT22;1821;50.936;6.854;2022-11-04T05:28:47;10.30;99.90
3614;DHT22;1821;50.936;6.854;2022-11-04T05:29:29;9.70;99.90
3614;DHT22;1821;50.936;6.854;2022-11-04T05:30:11;9.40;99.90
3614;DHT22;1821;50.936;6.854;2022-11-04T05:30:53;9.00;99.90
3614;DHT22;1821;50.936;6.854;2022-11-04T05:31:35;9.30;99.90
3614;DHT22;1821;50.936;6.854;2022-11-04T05:32:17;9.60;99.90
3614;DHT22;1821;50.936;6.854;2022-11-04T05:32:58;10.70;99.90
3614;DHT22;1821;50.936;6.854;2022-11-04T05:33:46;10.00;99.90
3614;DHT22;1821;50.936;6.854;2022-11-04T05:34:27;9.20;99.90
3614;DHT22;1821;50.936;6.854;2022-11-04T05:35:09;9.30;99.90
3614;DHT22;1821;50.936;6.854;2022-11-04T05:35:51;9.80;99.90
3614;DHT22;1821;50.936;6.854;2022-11-04T05:36:33;9.20;99.90
3614;DHT22;1821;50.936;6.854;2022-11-04T05:37:14;9.10;99.90
3614;DHT22;1821;50.936;6.854;2022-11-04T05:37:56;9.00;99.90
3614;DHT22;1821;50.936;6.854;2022-11-04T05:38:38;8.90;99.90
3614;DHT22;1821;50.936;6.854;2022-11-04T05:39:20;8.90;99.90
3614;DHT22;1821;50.936;6.854;2022-11-04T05:40:02;9.00;99.90